Palflot-5 — UBHC — position and weather

sailwx.info

Track history (hours):
 
Tides and Currents Weather Stations Pressure Air Temp Water Temp Dewpoint Dewpoint Depression Visibility Wind Speed Wind Dir Waves Ship Positions

Palflot-5

Last reported at 2015-Apr-27 00:12 UTC. Time now 2015-May-06 10:27 UTC.
Position N 45°00' E 036°31'.
Warning: this ship's position is 9 days out of date.

Length 122 m; draft 3.2 m.

Type: Tanker. MMSI: 273443040.

Date/timePositionNaut miles runAvg speedWind from/ knotsBaromVisibWave heightAir tempDewpointWater temp
2015-Apr-27 00:12N 45°00' E 036°31'7 6.3
2015-Apr-26 23:10N 44°55' E 036°36'2 0.3
2015-Apr-26 15:34N 44°53' E 036°38'0 0.0
2015-Apr-26 14:34N 44°53' E 036°38'0 0.0
2015-Apr-26 13:34N 44°53' E 036°38'0 0.0
2015-Apr-26 12:34N 44°53' E 036°38'0 0.0
2015-Apr-26 11:34N 44°53' E 036°38'0 0.1
2015-Apr-26 10:34N 44°53' E 036°38'0 0.0
2015-Apr-26 09:34N 44°53' E 036°38'0 0.0
2015-Apr-26 08:34N 44°53' E 036°38'0 0.0
2015-Apr-26 07:34N 44°53' E 036°38'0 0.0
2015-Apr-26 06:34N 44°53' E 036°38'0 0.0
2015-Apr-26 05:34N 44°53' E 036°38'0 0.0
2015-Apr-26 04:30N 44°53' E 036°38'1 0.3
2015-Apr-26 02:18N 44°54' E 036°39'0 0.0
2015-Apr-26 01:31N 44°54' E 036°39'0 0.0
2015-Apr-25 23:34N 44°54' E 036°39'0 0.0
2015-Apr-25 19:15N 44°54' E 036°39'0 0.0
2015-Apr-25 18:09N 44°54' E 036°39'0 0.0
2015-Apr-25 17:09N 44°54' E 036°39'0 0.0
2015-Apr-25 16:33N 44°54' E 036°39'0 0.0
2015-Apr-25 15:14N 44°54' E 036°39'0 0.0
2015-Apr-25 14:32N 44°54' E 036°39'0 0.0
2015-Apr-25 13:33N 44°54' E 036°39'0 0.0
2015-Apr-25 12:34N 44°54' E 036°39'0 0.0
2015-Apr-25 11:33N 44°54' E 036°39'0 0.0
2015-Apr-25 10:16N 44°54' E 036°39'0 0.0
2015-Apr-25 09:33N 44°54' E 036°39'  
Track history (hours):
 
Tides and Currents Weather Stations Pressure Air Temp Water Temp Dewpoint Dewpoint Depression Visibility Wind Speed Wind Dir Waves Ship Positions

Palflot-5

Last reported at 2015-Apr-27 00:12 UTC. Time now 2015-May-06 10:27 UTC.
Position N 45°00' E 036°31'.
Warning: this ship's position is 9 days out of date.

Length 122 m; draft 3.2 m.

Type: Tanker. MMSI: 273443040.

Date/timePositionNaut miles runAvg speedWind from/ knotsBaromVisibWave heightAir tempDewpointWater temp
2015-Apr-27 00:12N 45°00' E 036°31'7 6.3
2015-Apr-26 23:10N 44°55' E 036°36'2 0.3
2015-Apr-26 15:34N 44°53' E 036°38'0 0.0
2015-Apr-26 14:34N 44°53' E 036°38'0 0.0
2015-Apr-26 13:34N 44°53' E 036°38'0 0.0
2015-Apr-26 12:34N 44°53' E 036°38'0 0.0
2015-Apr-26 11:34N 44°53' E 036°38'0 0.1
2015-Apr-26 10:34N 44°53' E 036°38'0 0.0
2015-Apr-26 09:34N 44°53' E 036°38'0 0.0
2015-Apr-26 08:34N 44°53' E 036°38'0 0.0
2015-Apr-26 07:34N 44°53' E 036°38'0 0.0
2015-Apr-26 06:34N 44°53' E 036°38'0 0.0
2015-Apr-26 05:34N 44°53' E 036°38'0 0.0
2015-Apr-26 04:30N 44°53' E 036°38'1 0.3
2015-Apr-26 02:18N 44°54' E 036°39'0 0.0
2015-Apr-26 01:31N 44°54' E 036°39'0 0.0
2015-Apr-25 23:34N 44°54' E 036°39'0 0.0
2015-Apr-25 19:15N 44°54' E 036°39'0 0.0
2015-Apr-25 18:09N 44°54' E 036°39'0 0.0
2015-Apr-25 17:09N 44°54' E 036°39'0 0.0
2015-Apr-25 16:33N 44°54' E 036°39'0 0.0
2015-Apr-25 15:14N 44°54' E 036°39'0 0.0
2015-Apr-25 14:32N 44°54' E 036°39'0 0.0
2015-Apr-25 13:33N 44°54' E 036°39'0 0.0
2015-Apr-25 12:34N 44°54' E 036°39'0 0.0
2015-Apr-25 11:33N 44°54' E 036°39'0 0.0
2015-Apr-25 10:16N 44°54' E 036°39'0 0.0
2015-Apr-25 09:33N 44°54' E 036°39'  

Dump ship's entire track history